Time;durP1;ratioP1;P1;durP2;ratioP2;P2;SDS_P1;SDS_P2;PMS_P1;PMS_P2;Temp;Humidity;BMP_temperature;BMP_pressure;BME280_temperature;BME280_humidity;BME280_pressure;Samples;Min_cycle;Max_cycle;Signal;HPM_P1;HPM_P2
2024/01/02 00:01:01;;;;;;;35.22;17.45;;;;;;;;;;5031008;28;20815;-45
2024/01/02 00:03:27;;;;;;;147.00;43.70;;;;;;;;;;5030945;28;20174;-46
2024/01/02 00:05:53;;;;;;;203.77;54.47;;;;;;;;;;5031131;28;20416;-45
2024/01/02 00:08:19;;;;;;;202.77;63.87;;;;;;;;;;5030816;28;20491;-45
2024/01/02 00:10:45;;;;;;;210.60;59.80;;;;;;;;;;5030832;28;20464;-45
2024/01/02 00:13:11;;;;;;;167.70;49.13;;;;;;;;;;5030810;28;20431;-45
2024/01/02 00:15:37;;;;;;;170.02;48.33;;;;;;;;;;5030801;28;20498;-46
2024/01/02 00:18:04;;;;;;;208.13;60.10;;;;;;;;;;5030806;28;20661;-46
2024/01/02 00:20:30;;;;;;;192.45;55.40;;;;;;;;;;5030539;28;20238;-45
2024/01/02 00:22:56;;;;;;;199.57;57.20;;;;;;;;;;5030822;28;20216;-46
2024/01/02 00:25:22;;;;;;;73.60;26.03;;;;;;;;;;5033991;28;20408;-46
2024/01/02 00:27:48;;;;;;;106.60;32.80;;;;;;;;;;5034228;28;20428;-45
2024/01/02 00:30:16;;;;;;;204.70;59.27;;;;;;;;;;5033694;28;20468;-46
2024/01/02 00:32:42;;;;;;;178.57;49.55;;;;;;;;;;5034163;28;20421;-45
2024/01/02 00:35:08;;;;;;;188.30;53.30;;;;;;;;;;5026577;28;20185;-45
2024/01/02 00:37:34;;;;;;;177.77;50.58;;;;;;;;;;5029308;28;20260;-46
2024/01/02 00:40:00;;;;;;;61.50;23.67;;;;;;;;;;5032455;28;20618;-45
2024/01/02 00:42:25;;;;;;;94.00;31.00;;;;;;;;;;5032317;28;20402;-45
2024/01/02 00:44:52;;;;;;;211.27;57.87;;;;;;;;;;5033038;28;20429;-46
2024/01/02 00:47:21;;;;;;;181.38;51.33;;;;;;;;;;5033697;28;20414;-46
2024/01/02 00:49:47;;;;;;;163.27;45.00;;;;;;;;;;5033510;28;20210;-46
2024/01/02 00:52:13;;;;;;;213.68;57.45;;;;;;;;;;5033926;28;20182;-45
2024/01/02 00:54:39;;;;;;;210.63;54.67;;;;;;;;;;5033882;28;20187;-45
2024/01/02 00:57:05;;;;;;;211.07;55.27;;;;;;;;;;5033658;28;20558;-45
2024/01/02 00:59:30;;;;;;;158.05;43.85;;;;;;;;;;5033444;28;20951;-45
2024/01/02 01:01:56;;;;;;;211.33;56.80;;;;;;;;;;5033810;28;20187;-45
2024/01/02 01:04:23;;;;;;;210.00;56.37;;;;;;;;;;5034014;28;20492;-45
2024/01/02 01:06:49;;;;;;;120.10;34.72;;;;;;;;;;5033671;28;20916;-45
2024/01/02 01:09:15;;;;;;;11.13;10.10;;;;;;;;;;5033330;28;20209;-45
2024/01/02 01:11:41;;;;;;;11.63;10.63;;;;;;;;;;5033421;28;20456;-45
2024/01/02 01:14:06;;;;;;;10.83;9.87;;;;;;;;;;5033410;28;20255;-46
2024/01/02 01:16:32;;;;;;;9.37;8.47;;;;;;;;;;5033485;28;20416;-45
2024/01/02 01:18:58;;;;;;;8.63;7.72;;;;;;;;;;5033083;28;20474;-45
2024/01/02 01:21:24;;;;;;;10.23;9.30;;;;;;;;;;5033928;28;20187;-45
2024/01/02 01:23:50;;;;;;;10.00;9.07;;;;;;;;;;5033261;28;20448;-46
2024/01/02 01:26:16;;;;;;;15.38;13.80;;;;;;;;;;5033029;28;20426;-45
2024/01/02 01:28:42;;;;;;;8.97;8.03;;;;;;;;;;5030700;28;20527;-46
2024/01/02 01:31:08;;;;;;;9.93;8.83;;;;;;;;;;5035296;28;20899;-46
2024/01/02 01:33:34;;;;;;;9.85;8.95;;;;;;;;;;5047564;28;20445;-46
2024/01/02 01:36:00;;;;;;;10.87;9.87;;;;;;;;;;5051174;28;20169;-46
2024/01/02 01:38:26;;;;;;;13.03;11.70;;;;;;;;;;5038735;28;20407;-46
2024/01/02 01:40:52;;;;;;;9.67;8.70;;;;;;;;;;5042872;28;20515;-46
2024/01/02 01:43:18;;;;;;;9.10;8.30;;;;;;;;;;5047293;28;20456;-46
2024/01/02 01:45:44;;;;;;;10.20;9.20;;;;;;;;;;5034491;28;20419;-46
2024/01/02 01:48:10;;;;;;;10.52;9.55;;;;;;;;;;5053365;28;20410;-46
2024/01/02 01:50:36;;;;;;;9.20;8.30;;;;;;;;;;5034965;28;20206;-45
2024/01/02 01:53:03;;;;;;;10.93;9.93;;;;;;;;;;5046292;28;20195;-45
2024/01/02 01:55:29;;;;;;;10.27;9.30;;;;;;;;;;5043183;28;20188;-45
2024/01/02 01:57:55;;;;;;;8.68;7.75;;;;;;;;;;5038096;28;20641;-45
2024/01/02 02:00:21;;;;;;;8.98;8.18;;;;;;;;;;5051019;28;20210;-45
2024/01/02 02:02:48;;;;;;;11.17;9.97;;;;;;;;;;5032210;28;20179;-45
2024/01/02 02:05:14;;;;;;;120.57;33.58;;;;;;;;;;5049290;28;20973;-45
2024/01/02 02:07:40;;;;;;;206.93;54.00;;;;;;;;;;5039225;28;20264;-45
2024/01/02 02:10:09;;;;;;;41.92;18.25;;;;;;;;;;5041329;28;20455;-46
2024/01/02 02:12:35;;;;;;;7.47;6.78;;;;;;;;;;5047216;28;20769;-45
2024/01/02 02:15:03;;;;;;;8.48;7.68;;;;;;;;;;5033535;28;20221;-45
2024/01/02 02:17:29;;;;;;;7.00;6.30;;;;;;;;;;5052539;28;20163;-45
2024/01/02 02:19:56;;;;;;;182.02;48.92;;;;;;;;;;5034555;28;20194;-45
2024/01/02 02:22:29;;;;;;;188.48;51.35;;;;;;;;;;5039367;28;20175;-45
2024/01/02 02:24:55;;;;;;;201.40;51.88;;;;;;;;;;5043510;28;20186;-45
2024/01/02 02:27:21;;;;;;;146.47;40.27;;;;;;;;;;5045990;28;20260;-45
2024/01/02 02:29:47;;;;;;;161.60;44.33;;;;;;;;;;5033851;28;20428;-45
2024/01/02 02:32:13;;;;;;;117.95;33.20;;;;;;;;;;5052221;28;20409;-45
2024/01/02 02:34:39;;;;;;;9.17;7.07;;;;;;;;;;5034056;28;20172;-45
2024/01/02 02:37:05;;;;;;;15.33;8.83;;;;;;;;;;5045794;28;20456;-45
2024/01/02 02:39:31;;;;;;;112.37;32.43;;;;;;;;;;5041962;28;20509;-44
2024/01/02 02:41:57;;;;;;;7.80;6.97;;;;;;;;;;5037531;28;20420;-45
2024/01/02 02:44:23;;;;;;;46.53;16.87;;;;;;;;;;5050307;28;20492;-45
2024/01/02 02:46:49;;;;;;;7.00;6.30;;;;;;;;;;5032006;28;20417;-44
2024/01/02 02:49:15;;;;;;;191.83;52.00;;;;;;;;;;5048934;28;20441;-45
2024/01/02 02:51:41;;;;;;;79.27;24.30;;;;;;;;;;5038414;28;20461;-45
2024/01/02 02:54:06;;;;;;;124.90;35.60;;;;;;;;;;5040807;28;20494;-46
2024/01/02 02:56:32;;;;;;;160.30;43.77;;;;;;;;;;5046951;28;20411;-45
2024/01/02 02:58:58;;;;;;;174.10;47.27;;;;;;;;;;5032061;28;20510;-45
2024/01/02 03:01:25;;;;;;;8.90;7.80;;;;;;;;;;5051817;28;20418;-45
2024/01/02 03:03:51;;;;;;;10.25;9.25;;;;;;;;;;5034758;28;20649;-45
2024/01/02 03:06:17;;;;;;;10.07;9.02;;;;;;;;;;5044275;28;20185;-45
2024/01/02 03:08:43;;;;;;;9.03;7.80;;;;;;;;;;5042816;28;20661;-45
2024/01/02 03:11:10;;;;;;;8.37;7.43;;;;;;;;;;5036013;28;20460;-45
2024/01/02 03:13:36;;;;;;;11.82;10.68;;;;;;;;;;5051029;28;20408;-45
2024/01/02 03:16:02;;;;;;;9.13;8.33;;;;;;;;;;5031764;28;20177;-44
2024/01/02 03:18:28;;;;;;;13.85;12.45;;;;;;;;;;5048125;28;20412;-45
2024/01/02 03:20:54;;;;;;;9.10;8.20;;;;;;;;;;5039163;28;20178;-45
2024/01/02 03:23:21;;;;;;;10.43;9.43;;;;;;;;;;5039599;28;20417;-46
2024/01/02 03:25:47;;;;;;;11.25;10.23;;;;;;;;;;5047421;28;20787;-45
2024/01/02 03:28:13;;;;;;;10.07;9.07;;;;;;;;;;5028094;28;20179;-46
2024/01/02 03:30:40;;;;;;;10.65;9.63;;;;;;;;;;5031065;28;20475;-45
2024/01/02 03:33:06;;;;;;;12.80;11.60;;;;;;;;;;5031152;28;20190;-45
2024/01/02 03:35:32;;;;;;;8.87;7.97;;;;;;;;;;5031298;28;20545;-45
2024/01/02 03:37:58;;;;;;;9.00;8.07;;;;;;;;;;5032179;28;20413;-45
2024/01/02 03:40:24;;;;;;;9.30;8.40;;;;;;;;;;5031078;28;20429;-46
2024/01/02 03:42:50;;;;;;;8.63;7.73;;;;;;;;;;5031380;28;20416;-46
2024/01/02 03:45:16;;;;;;;10.50;9.50;;;;;;;;;;5031142;28;20457;-45
2024/01/02 03:47:42;;;;;;;12.82;8.18;;;;;;;;;;5031193;28;20416;-46
2024/01/02 03:50:08;;;;;;;26.37;11.93;;;;;;;;;;5030809;28;20272;-46
2024/01/02 03:52:34;;;;;;;10.30;9.23;;;;;;;;;;5031246;28;20503;-45
2024/01/02 03:55:00;;;;;;;145.80;41.47;;;;;;;;;;5031046;28;20249;-46
2024/01/02 03:57:27;;;;;;;145.15;41.00;;;;;;;;;;5031232;28;20433;-44
2024/01/02 03:59:53;;;;;;;99.30;29.58;;;;;;;;;;5033418;28;20208;-45
2024/01/02 04:02:19;;;;;;;156.98;43.00;;;;;;;;;;5034703;28;20184;-45
2024/01/02 04:04:47;;;;;;;40.37;17.33;;;;;;;;;;5034845;28;20175;-46
2024/01/02 04:07:12;;;;;;;8.95;7.85;;;;;;;;;;5034781;28;20424;-46
2024/01/02 04:09:38;;;;;;;11.83;10.63;;;;;;;;;;5034650;28;20198;-45
2024/01/02 04:12:04;;;;;;;9.73;8.50;;;;;;;;;;5034646;28;20469;-45
2024/01/02 04:14:30;;;;;;;23.10;10.35;;;;;;;;;;5034690;28;20410;-45
2024/01/02 04:16:56;;;;;;;7.97;7.17;;;;;;;;;;5034659;28;20523;-45
2024/01/02 04:19:22;;;;;;;7.53;6.73;;;;;;;;;;5034330;28;20879;-45
2024/01/02 04:21:49;;;;;;;8.68;7.78;;;;;;;;;;5034762;28;20880;-46
2024/01/02 04:24:15;;;;;;;26.55;13.40;;;;;;;;;;5034391;28;20211;-45
2024/01/02 04:26:41;;;;;;;11.88;10.15;;;;;;;;;;5034445;28;20748;-45
2024/01/02 04:29:07;;;;;;;125.90;39.53;;;;;;;;;;5034118;28;20234;-46
2024/01/02 04:31:33;;;;;;;10.17;9.13;;;;;;;;;;5034204;28;20954;-45
2024/01/02 04:33:59;;;;;;;126.70;39.73;;;;;;;;;;5034308;28;20481;-46
2024/01/02 04:36:28;;;;;;;9.20;8.30;;;;;;;;;;5034276;28;20416;-46
2024/01/02 04:38:54;;;;;;;8.45;7.65;;;;;;;;;;5034205;28;20462;-46
2024/01/02 04:41:20;;;;;;;10.02;9.02;;;;;;;;;;5034061;28;20545;-45
2024/01/02 04:43:46;;;;;;;8.30;7.47;;;;;;;;;;5034168;28;20647;-45
2024/01/02 04:46:12;;;;;;;10.45;9.45;;;;;;;;;;5034462;28;20302;-45
2024/01/02 04:48:38;;;;;;;10.57;9.30;;;;;;;;;;5033937;28;20724;-45
2024/01/02 04:51:04;;;;;;;7.97;6.00;;;;;;;;;;5033913;28;20468;-46
2024/01/02 04:53:30;;;;;;;8.40;7.53;;;;;;;;;;5034044;28;20395;-45
2024/01/02 04:55:56;;;;;;;8.33;7.47;;;;;;;;;;5033889;28;20518;-45
2024/01/02 04:58:22;;;;;;;9.60;7.23;;;;;;;;;;5034051;28;20803;-45
2024/01/02 05:00:48;;;;;;;8.63;6.55;;;;;;;;;;5033714;28;20446;-45
2024/01/02 05:03:14;;;;;;;7.22;6.20;;;;;;;;;;5033714;28;20546;-45
2024/01/02 05:05:40;;;;;;;7.27;5.43;;;;;;;;;;5033791;28;20187;-45
2024/01/02 05:08:06;;;;;;;8.80;6.70;;;;;;;;;;5033627;28;20504;-46
2024/01/02 05:10:32;;;;;;;8.95;6.60;;;;;;;;;;5032839;28;20507;-44
2024/01/02 05:12:59;;;;;;;8.00;6.50;;;;;;;;;;5033770;28;20715;-46
2024/01/02 05:15:25;;;;;;;8.75;7.53;;;;;;;;;;5033482;28;20465;-45
2024/01/02 05:17:51;;;;;;;9.10;8.20;;;;;;;;;;5033542;28;20185;-46
2024/01/02 05:20:17;;;;;;;7.60;5.77;;;;;;;;;;5033193;28;20480;-46
2024/01/02 05:22:42;;;;;;;6.00;4.57;;;;;;;;;;5033412;28;20905;-45
2024/01/02 05:25:09;;;;;;;8.67;7.27;;;;;;;;;;5033229;28;20474;-46
2024/01/02 05:27:35;;;;;;;7.63;5.78;;;;;;;;;;5033328;28;20425;-45
2024/01/02 05:30:01;;;;;;;6.45;5.32;;;;;;;;;;5033206;28;20267;-46
2024/01/02 05:32:27;;;;;;;5.65;4.60;;;;;;;;;;5033270;28;20194;-46
2024/01/02 05:34:53;;;;;;;7.87;6.53;;;;;;;;;;5033378;28;20183;-45
2024/01/02 05:37:19;;;;;;;7.55;6.43;;;;;;;;;;5033101;28;20409;-46
2024/01/02 05:39:45;;;;;;;8.10;6.47;;;;;;;;;;5032824;28;20348;-45
2024/01/02 05:42:11;;;;;;;8.30;7.27;;;;;;;;;;5032996;28;20414;-45
2024/01/02 05:44:37;;;;;;;7.60;6.10;;;;;;;;;;5032936;28;20417;-45
2024/01/02 05:47:03;;;;;;;8.77;7.87;;;;;;;;;;5033060;28;20761;-46
2024/01/02 05:49:29;;;;;;;7.43;6.18;;;;;;;;;;5043188;28;20439;-46
2024/01/02 05:51:56;;;;;;;6.97;5.17;;;;;;;;;;5046461;28;20574;-46
2024/01/02 05:54:22;;;;;;;9.13;7.03;;;;;;;;;;5035204;28;20466;-46
2024/01/02 05:56:48;;;;;;;7.77;5.77;;;;;;;;;;5052817;28;20167;-46
2024/01/02 05:59:14;;;;;;;7.00;4.83;;;;;;;;;;5033924;28;20452;-46
2024/01/02 06:01:40;;;;;;;7.43;6.63;;;;;;;;;;5047032;28;20409;-46
2024/01/02 06:04:06;;;;;;;7.23;6.53;;;;;;;;;;5042498;28;20905;-45
2024/01/02 06:06:32;;;;;;;8.70;7.90;;;;;;;;;;5038621;28;20413;-46
2024/01/02 06:08:58;;;;;;;8.47;7.43;;;;;;;;;;5050364;28;20424;-46
2024/01/02 06:11:24;;;;;;;8.33;7.53;;;;;;;;;;5032547;28;20662;-45
2024/01/02 06:13:50;;;;;;;9.23;8.20;;;;;;;;;;5050284;28;20409;-45
2024/01/02 06:16:16;;;;;;;7.63;6.50;;;;;;;;;;5039024;28;20797;-45
2024/01/02 06:18:42;;;;;;;8.70;7.77;;;;;;;;;;5041881;28;20226;-45
2024/01/02 06:21:08;;;;;;;7.87;6.67;;;;;;;;;;5046257;28;20409;-45
2024/01/02 06:23:34;;;;;;;7.73;6.80;;;;;;;;;;5033496;28;20851;-46
2024/01/02 06:26:01;;;;;;;8.05;7.28;;;;;;;;;;5052256;28;20445;-46
2024/01/02 06:28:27;;;;;;;9.20;8.15;;;;;;;;;;5034495;28;20193;-45
2024/01/02 06:30:53;;;;;;;9.13;8.23;;;;;;;;;;5045413;28;20211;-45
2024/01/02 06:33:20;;;;;;;7.37;5.93;;;;;;;;;;5042958;28;20437;-45
2024/01/02 06:35:46;;;;;;;8.18;7.38;;;;;;;;;;5037262;28;20796;-45
2024/01/02 06:38:12;;;;;;;10.43;9.37;;;;;;;;;;5051019;28;20170;-45
2024/01/02 06:40:39;;;;;;;7.30;6.37;;;;;;;;;;5031855;28;20949;-45
2024/01/02 06:43:05;;;;;;;6.63;5.97;;;;;;;;;;5032441;28;20421;-45
2024/01/02 06:45:31;;;;;;;7.88;7.07;;;;;;;;;;5032407;28;20175;-45
2024/01/02 06:47:58;;;;;;;9.88;9.00;;;;;;;;;;5040792;28;20175;-46
2024/01/02 06:50:24;;;;;;;8.98;8.07;;;;;;;;;;5046692;28;20644;-45
2024/01/02 06:52:50;;;;;;;6.70;6.10;;;;;;;;;;5032413;28;20305;-46
2024/01/02 06:55:17;;;;;;;7.18;6.00;;;;;;;;;;5051809;28;20393;-45
2024/01/02 06:57:43;;;;;;;7.03;6.03;;;;;;;;;;5051350;28;20541;-46
2024/01/02 07:00:10;;;;;;;6.63;5.67;;;;;;;;;;5030395;28;20290;-46
2024/01/02 07:02:36;;;;;;;6.10;5.47;;;;;;;;;;5031739;28;20414;-45
2024/01/02 07:05:03;;;;;;;6.63;5.67;;;;;;;;;;5031664;28;20777;-45
2024/01/02 07:07:29;;;;;;;7.55;6.72;;;;;;;;;;5031652;28;20406;-45
2024/01/02 07:09:56;;;;;;;8.02;7.00;;;;;;;;;;5031307;28;20207;-45
2024/01/02 07:12:22;;;;;;;7.60;6.28;;;;;;;;;;5031568;28;20172;-45
2024/01/02 07:14:48;;;;;;;6.87;6.17;;;;;;;;;;5031765;28;20171;-45
2024/01/02 07:17:18;;;;;;;7.85;7.05;;;;;;;;;;5031445;28;20979;-45
2024/01/02 07:19:44;;;;;;;7.45;6.68;;;;;;;;;;5031318;28;20195;-45
2024/01/02 07:22:10;;;;;;;8.45;7.35;;;;;;;;;;5031460;28;20279;-46
2024/01/02 07:24:36;;;;;;;7.70;6.83;;;;;;;;;;5031309;28;20232;-45
2024/01/02 07:27:02;;;;;;;7.07;6.18;;;;;;;;;;5031460;28;20419;-45
2024/01/02 07:29:28;;;;;;;7.30;6.43;;;;;;;;;;5031322;28;20210;-45
2024/01/02 07:31:54;;;;;;;8.77;7.40;;;;;;;;;;5031374;28;20450;-45
2024/01/02 07:34:20;;;;;;;8.30;7.17;;;;;;;;;;5034633;28;20488;-45
2024/01/02 07:36:46;;;;;;;9.77;8.40;;;;;;;;;;5034430;28;20848;-45
2024/01/02 07:39:12;;;;;;;7.93;6.90;;;;;;;;;;5034511;28;20290;-45
2024/01/02 07:41:38;;;;;;;8.38;7.55;;;;;;;;;;5040942;28;20433;-46
2024/01/02 07:44:06;;;;;;;6.03;5.43;;;;;;;;;;5042251;28;20217;-45
2024/01/02 07:46:32;;;;;;;6.28;5.68;;;;;;;;;;5035332;28;20417;-45
2024/01/02 07:48:58;;;;;;;7.47;6.70;;;;;;;;;;5035044;28;20199;-45
2024/01/02 07:51:24;;;;;;;8.35;7.55;;;;;;;;;;5035041;28;20468;-46
2024/01/02 07:53:51;;;;;;;9.83;8.93;;;;;;;;;;5034951;28;20306;-45
2024/01/02 07:56:21;;;;;;;6.65;5.90;;;;;;;;;;5035045;28;20815;-45
2024/01/02 07:58:47;;;;;;;6.30;5.65;;;;;;;;;;5034608;28;20675;-46
2024/01/02 08:01:13;;;;;;;6.85;5.90;;;;;;;;;;5034980;28;20194;-46
2024/01/02 08:03:40;;;;;;;7.45;6.75;;;;;;;;;;5034912;28;20309;-46
2024/01/02 08:06:06;;;;;;;8.75;7.90;;;;;;;;;;5039244;28;20213;-46
2024/01/02 08:08:31;;;;;;;12.23;10.90;;;;;;;;;;5034512;28;20601;-46
2024/01/02 08:10:57;;;;;;;6.80;5.90;;;;;;;;;;5034705;28;20523;-46
2024/01/02 08:13:23;;;;;;;7.17;6.53;;;;;;;;;;5034724;28;20449;-45
2024/01/02 08:15:49;;;;;;;6.57;5.50;;;;;;;;;;5034699;28;20417;-46
2024/01/02 08:18:15;;;;;;;7.43;6.67;;;;;;;;;;5034605;28;20418;-45
2024/01/02 08:20:41;;;;;;;8.37;7.53;;;;;;;;;;5034196;28;20428;-45
2024/01/02 08:23:07;;;;;;;9.10;8.40;;;;;;;;;;5034675;28;20422;-45
2024/01/02 08:25:33;;;;;;;10.27;9.38;;;;;;;;;;5035649;28;20781;-45
2024/01/02 08:27:59;;;;;;;9.00;8.13;;;;;;;;;;5034703;28;20690;-46
2024/01/02 08:30:25;;;;;;;7.97;7.17;;;;;;;;;;5034610;28;20454;-46
2024/01/02 08:32:51;;;;;;;9.03;8.23;;;;;;;;;;5034686;28;20766;-45
2024/01/02 08:35:17;;;;;;;9.40;8.50;;;;;;;;;;5034328;28;20793;-45
2024/01/02 08:37:44;;;;;;;7.00;6.40;;;;;;;;;;5034427;28;20417;-45
2024/01/02 08:40:11;;;;;;;8.50;7.70;;;;;;;;;;5034134;28;20770;-45
2024/01/02 08:42:37;;;;;;;8.73;7.88;;;;;;;;;;5034249;28;20189;-45
2024/01/02 08:45:04;;;;;;;9.20;8.30;;;;;;;;;;5033339;28;20178;-46
2024/01/02 08:47:31;;;;;;;9.27;8.40;;;;;;;;;;5034129;28;20216;-45
2024/01/02 08:49:57;;;;;;;8.30;7.50;;;;;;;;;;5033627;28;20422;-46
2024/01/02 08:52:22;;;;;;;8.37;7.57;;;;;;;;;;5033992;28;20408;-45
2024/01/02 08:54:48;;;;;;;7.10;6.47;;;;;;;;;;5033985;28;20414;-46
2024/01/02 08:57:15;;;;;;;7.80;7.00;;;;;;;;;;5034062;28;20474;-45
2024/01/02 08:59:41;;;;;;;7.03;6.32;;;;;;;;;;5033535;28;20499;-46
2024/01/02 09:02:07;;;;;;;9.18;8.38;;;;;;;;;;5034177;28;20521;-46
2024/01/02 09:04:33;;;;;;;8.27;7.57;;;;;;;;;;5033773;28;20178;-45
2024/01/02 09:06:59;;;;;;;7.67;6.90;;;;;;;;;;5033876;28;20447;-45
2024/01/02 09:09:25;;;;;;;9.40;8.60;;;;;;;;;;5033528;28;20798;-45
2024/01/02 09:11:51;;;;;;;11.00;10.10;;;;;;;;;;5033652;28;20458;-45
2024/01/02 09:14:17;;;;;;;8.43;7.73;;;;;;;;;;5033690;28;20477;-45
2024/01/02 09:16:45;;;;;;;9.20;8.40;;;;;;;;;;5033722;28;20421;-46
2024/01/02 09:19:11;;;;;;;9.50;8.67;;;;;;;;;;5033089;28;20440;-45
2024/01/02 09:21:37;;;;;;;9.32;8.52;;;;;;;;;;5033451;28;20410;-46
2024/01/02 09:24:04;;;;;;;10.63;9.70;;;;;;;;;;5033715;28;20262;-44
2024/01/02 09:26:31;;;;;;;8.15;7.38;;;;;;;;;;5033444;28;20406;-46
2024/01/02 09:28:57;;;;;;;9.27;8.45;;;;;;;;;;5033043;28;20267;-46
2024/01/02 09:31:26;;;;;;;11.67;10.77;;;;;;;;;;5033289;28;20679;-46
2024/01/02 09:33:52;;;;;;;12.23;11.20;;;;;;;;;;5033093;28;20423;-47
2024/01/02 09:36:18;;;;;;;8.70;8.00;;;;;;;;;;5033157;28;20411;-46
2024/01/02 09:38:44;;;;;;;15.65;13.95;;;;;;;;;;5029514;28;20419;-45
2024/01/02 09:41:29;;;;;;;6.90;6.30;;;;;;;;;;5028343;28;20176;-45
2024/01/02 09:44:07;;;;;;;10.70;9.80;;;;;;;;;;5032835;28;20418;-45
2024/01/02 09:46:33;;;;;;;9.27;8.37;;;;;;;;;;5025267;28;20242;-46
2024/01/02 09:49:08;;;;;;;11.77;10.57;;;;;;;;;;5029423;28;20443;-46
2024/01/02 09:51:37;;;;;;;8.07;7.30;;;;;;;;;;5025542;28;20473;-45
2024/01/02 09:54:42;;;;;;;9.50;8.60;;;;;;;;;;5032614;28;20796;-46
2024/01/02 09:57:14;;;;;;;11.88;10.68;;;;;;;;;;5037086;28;20426;-46
2024/01/02 09:59:58;;;;;;;7.93;7.23;;;;;;;;;;5029871;28;20216;-45
2024/01/02 10:02:34;;;;;;;8.17;7.47;;;;;;;;;;5026013;28;20422;-46
2024/01/02 10:05:19;;;;;;;11.70;10.40;;;;;;;;;;5032248;28;20555;-46
2024/01/02 10:08:08;;;;;;;6.55;5.85;;;;;;;;;;5032575;28;20781;-45
2024/01/02 10:10:36;;;;;;;9.18;8.27;;;;;;;;;;5028162;28;20221;-45
2024/01/02 10:13:08;;;;;;;7.73;6.97;;;;;;;;;;5032542;28;20167;-45
2024/01/02 10:15:38;;;;;;;9.47;8.57;;;;;;;;;;5032483;28;20413;-45
2024/01/02 10:18:33;;;;;;;9.30;8.47;;;;;;;;;;5032554;28;20444;-45
2024/01/02 10:21:18;;;;;;;9.33;8.53;;;;;;;;;;5022993;28;20506;-46
2024/01/02 10:23:53;;;;;;;9.13;8.23;;;;;;;;;;5032214;28;20417;-46
2024/01/02 10:26:19;;;;;;;9.67;8.80;;;;;;;;;;5032211;28;20178;-45
2024/01/02 10:28:48;;;;;;;8.50;7.63;;;;;;;;;;5031961;28;20415;-45
2024/01/02 10:31:21;;;;;;;7.83;7.03;;;;;;;;;;5032045;28;20540;-46
2024/01/02 10:33:51;;;;;;;8.53;7.73;;;;;;;;;;5032020;28;20407;-45
2024/01/02 10:36:22;;;;;;;8.98;8.15;;;;;;;;;;5031484;28;20468;-45
2024/01/02 10:39:08;;;;;;;10.73;9.80;;;;;;;;;;5031843;28;20691;-45
2024/01/02 10:41:52;;;;;;;9.00;8.20;;;;;;;;;;5029360;28;20411;-46
2024/01/02 10:44:24;;;;;;;8.80;8.00;;;;;;;;;;5031904;28;20435;-45
2024/01/02 10:47:02;;;;;;;8.60;7.80;;;;;;;;;;5031996;28;20424;-44
2024/01/02 10:49:28;;;;;;;7.77;7.03;;;;;;;;;;5024808;28;20210;-45
2024/01/02 10:51:59;;;;;;;9.00;8.27;;;;;;;;;;5031789;28;20462;-45
2024/01/02 10:54:32;;;;;;;8.65;7.85;;;;;;;;;;5024347;28;20406;-45
2024/01/02 10:57:00;;;;;;;7.00;6.20;;;;;;;;;;5031680;28;20219;-46
2024/01/02 10:59:30;;;;;;;6.53;5.80;;;;;;;;;;5031383;28;20439;-45
2024/01/02 11:02:01;;;;;;;8.32;7.55;;;;;;;;;;5031946;28;20663;-45
2024/01/02 11:04:39;;;;;;;7.95;7.25;;;;;;;;;;5024465;28;20169;-45
2024/01/02 11:07:06;;;;;;;9.43;8.63;;;;;;;;;;5031427;28;20194;-46
2024/01/02 11:09:41;;;;;;;9.60;8.70;;;;;;;;;;5031199;28;20248;-45
2024/01/02 11:12:08;;;;;;;9.20;8.40;;;;;;;;;;5031552;28;21259;-44
2024/01/02 11:14:36;;;;;;;6.60;6.00;;;;;;;;;;5031526;28;20905;-45
2024/01/02 11:17:04;;;;;;;8.05;7.25;;;;;;;;;;5031534;28;20203;-45
2024/01/02 11:19:32;;;;;;;7.97;7.13;;;;;;;;;;5031311;28;20191;-45
2024/01/02 11:22:04;;;;;;;9.35;8.48;;;;;;;;;;5031297;28;20556;-45
2024/01/02 11:24:30;;;;;;;7.93;7.13;;;;;;;;;;5031544;28;20202;-45
2024/01/02 11:26:59;;;;;;;7.50;6.77;;;;;;;;;;5031496;28;20496;-44
2024/01/02 11:29:27;;;;;;;15.75;12.77;;;;;;;;;;5027107;28;20493;-45
2024/01/02 11:31:54;;;;;;;10.00;8.97;;;;;;;;;;5022509;28;20207;-45
2024/01/02 11:34:20;;;;;;;8.83;8.00;;;;;;;;;;5040865;28;20490;-44
2024/01/02 11:36:46;;;;;;;9.33;8.30;;;;;;;;;;5048870;28;20878;-45
2024/01/02 11:39:13;;;;;;;9.93;9.00;;;;;;;;;;5049408;28;20430;-44
2024/01/02 11:41:59;;;;;;;8.63;7.83;;;;;;;;;;5031617;28;20414;-44
2024/01/02 11:44:25;;;;;;;7.27;6.57;;;;;;;;;;5011836;28;20467;-44
2024/01/02 11:46:54;;;;;;;8.07;7.27;;;;;;;;;;5044612;28;20414;-43
2024/01/02 11:49:23;;;;;;;9.27;8.47;;;;;;;;;;5038301;28;20797;-45
2024/01/02 11:51:53;;;;;;;10.97;10.03;;;;;;;;;;5039891;28;20849;-45
2024/01/02 11:54:37;;;;;;;9.80;9.00;;;;;;;;;;5046162;28;20435;-45
2024/01/02 11:57:06;;;;;;;7.83;7.07;;;;;;;;;;5034870;28;20416;-44
2024/01/02 11:59:39;;;;;;;7.07;6.37;;;;;;;;;;5050679;28;20531;-44
2024/01/02 12:02:14;;;;;;;7.43;6.73;;;;;;;;;;5011467;28;20405;-44
2024/01/02 12:04:59;;;;;;;10.07;9.20;;;;;;;;;;5047647;28;20413;-44
2024/01/02 12:07:29;;;;;;;7.90;7.23;;;;;;;;;;5034550;28;20429;-44
2024/01/02 12:09:56;;;;;;;9.03;8.23;;;;;;;;;;5043691;28;20433;-43
2024/01/02 12:12:31;;;;;;;9.13;8.33;;;;;;;;;;5042016;28;20469;-43
2024/01/02 12:15:06;;;;;;;7.17;6.43;;;;;;;;;;5037043;28;20506;-44
2024/01/02 12:17:39;;;;;;;8.60;7.80;;;;;;;;;;5047737;28;20410;-45
2024/01/02 12:20:06;;;;;;;9.52;8.65;;;;;;;;;;5032492;28;20468;-44
2024/01/02 12:22:33;;;;;;;8.77;7.97;;;;;;;;;;5015052;28;20180;-45
2024/01/02 12:25:01;;;;;;;8.50;7.65;;;;;;;;;;5042879;28;20635;-45
2024/01/02 12:27:28;;;;;;;6.95;6.25;;;;;;;;;;5046909;28;20218;-45
2024/01/02 12:29:58;;;;;;;111.57;32.60;;;;;;;;;;5028579;28;20219;-44
2024/01/02 12:32:39;;;;;;;76.05;26.63;;;;;;;;;;5019499;28;20291;-45
2024/01/02 12:35:10;;;;;;;84.80;27.00;;;;;;;;;;5035796;28;20225;-45
2024/01/02 12:37:37;;;;;;;14.03;11.13;;;;;;;;;;5054113;28;20170;-45
2024/01/02 12:40:06;;;;;;;7.63;6.93;;;;;;;;;;5029672;28;20489;-45
2024/01/02 12:42:35;;;;;;;8.10;7.32;;;;;;;;;;5023632;28;20176;-45
2024/01/02 12:45:04;;;;;;;7.77;6.33;;;;;;;;;;5027053;28;20175;-44
2024/01/02 12:47:36;;;;;;;8.45;6.95;;;;;;;;;;5042168;28;20409;-45
2024/01/02 12:50:03;;;;;;;11.18;9.63;;;;;;;;;;5047093;28;20218;-46
2024/01/02 12:52:38;;;;;;;9.27;8.35;;;;;;;;;;5034493;28;20175;-45
2024/01/02 12:55:06;;;;;;;7.43;6.55;;;;;;;;;;5054380;28;20535;-44
2024/01/02 12:57:35;;;;;;;11.05;9.05;;;;;;;;;;5034035;28;20199;-45
2024/01/02 13:00:01;;;;;;;7.82;6.93;;;;;;;;;;5047632;28;20261;-46
2024/01/02 13:02:27;;;;;;;7.70;6.55;;;;;;;;;;5043170;28;20184;-46
2024/01/02 13:04:53;;;;;;;8.38;7.50;;;;;;;;;;5032822;28;20175;-45
2024/01/02 13:07:19;;;;;;;7.70;6.63;;;;;;;;;;5036317;28;20198;-45
2024/01/02 13:09:46;;;;;;;7.63;6.83;;;;;;;;;;5053628;28;20429;-45
2024/01/02 13:12:13;;;;;;;7.13;6.10;;;;;;;;;;5035066;28;20457;-45
2024/01/02 13:14:40;;;;;;;7.43;6.47;;;;;;;;;;5048227;28;20171;-46
2024/01/02 13:17:06;;;;;;;7.32;6.57;;;;;;;;;;5043009;28;20171;-45
2024/01/02 13:19:32;;;;;;;9.32;8.43;;;;;;;;;;5039589;28;20356;-45
2024/01/02 13:21:58;;;;;;;9.15;8.25;;;;;;;;;;5051102;28;20188;-46
2024/01/02 13:24:24;;;;;;;8.27;7.50;;;;;;;;;;5033808;28;20168;-46
2024/01/02 13:26:53;;;;;;;10.43;9.27;;;;;;;;;;5050525;28;20500;-45
2024/01/02 13:29:19;;;;;;;7.72;6.63;;;;;;;;;;5026313;28;20199;-46
2024/01/02 13:31:54;;;;;;;8.73;7.82;;;;;;;;;;5033095;28;20231;-46
2024/01/02 13:34:24;;;;;;;8.95;8.05;;;;;;;;;;5031463;28;20259;-45
2024/01/02 13:36:51;;;;;;;10.32;9.50;;;;;;;;;;5028983;28;20186;-45
2024/01/02 13:39:32;;;;;;;8.40;7.55;;;;;;;;;;5044509;28;20580;-46
2024/01/02 13:42:02;;;;;;;9.13;8.23;;;;;;;;;;5039714;28;20254;-45
2024/01/02 13:44:28;;;;;;;8.93;7.90;;;;;;;;;;5032813;28;20183;-45
2024/01/02 13:46:54;;;;;;;9.10;8.27;;;;;;;;;;5033069;28;20227;-45
2024/01/02 13:49:20;;;;;;;9.07;8.17;;;;;;;;;;5032833;28;20414;-45
2024/01/02 13:51:46;;;;;;;9.27;8.37;;;;;;;;;;5036417;28;20545;-45
2024/01/02 13:54:14;;;;;;;10.80;9.80;;;;;;;;;;5037787;28;20472;-45
2024/01/02 13:56:47;;;;;;;6.88;6.03;;;;;;;;;;5039530;28;20247;-45
2024/01/02 13:59:14;;;;;;;8.32;7.50;;;;;;;;;;5032310;28;20269;-47
2024/01/02 14:01:46;;;;;;;9.32;8.52;;;;;;;;;;5034514;28;20179;-45
2024/01/02 14:04:19;;;;;;;8.63;7.70;;;;;;;;;;5035932;28;20304;-45
2024/01/02 14:06:46;;;;;;;8.57;7.78;;;;;;;;;;5032802;28;20237;-46
2024/01/02 14:09:17;;;;;;;8.40;7.60;;;;;;;;;;5032813;28;20345;-46
2024/01/02 14:12:02;;;;;;;9.18;8.32;;;;;;;;;;5037829;28;20202;-45
2024/01/02 14:14:29;;;;;;;8.93;8.10;;;;;;;;;;5032456;28;20254;-46
2024/01/02 14:17:00;;;;;;;9.07;8.18;;;;;;;;;;5032359;28;20640;-46
2024/01/02 14:19:31;;;;;;;9.02;8.15;;;;;;;;;;5028686;28;20192;-45
2024/01/02 14:22:03;;;;;;;9.32;8.48;;;;;;;;;;5033694;28;20186;-48
2024/01/02 14:24:32;;;;;;;7.30;6.60;;;;;;;;;;5038633;28;20270;-45
2024/01/02 14:27:07;;;;;;;6.82;6.05;;;;;;;;;;5028950;28;20228;-45
2024/01/02 14:29:38;;;;;;;7.40;6.10;;;;;;;;;;5026964;28;20214;-45
2024/01/02 14:32:09;;;;;;;9.13;8.20;;;;;;;;;;5029287;28;20199;-45
2024/01/02 14:34:35;;;;;;;8.48;7.40;;;;;;;;;;5033831;28;20309;-45
2024/01/02 14:37:01;;;;;;;7.13;6.40;;;;;;;;;;5034771;28;20255;-45